createdAt,value
2019-05-13T00:01:24.386Z,99265.39
2019-05-13T00:03:55.528Z,99263.47
2019-05-13T00:06:26.630Z,99274.37
2019-05-13T00:08:59.004Z,99276.75
2019-05-13T00:11:30.221Z,99266.69
2019-05-13T00:14:01.135Z,99268.09
2019-05-13T00:16:34.170Z,99262.48
2019-05-13T00:19:05.032Z,99261.91
2019-05-13T00:21:36.359Z,99262.80
2019-05-13T00:24:07.517Z,99264.63
2019-05-13T00:26:39.024Z,99272.56
2019-05-13T00:29:10.100Z,99266.28
2019-05-13T00:31:43.700Z,99276.56
2019-05-13T00:34:14.600Z,99271.19
2019-05-13T00:36:45.954Z,99274.44
2019-05-13T00:39:17.390Z,99273.33
2019-05-13T00:41:48.648Z,99271.45
2019-05-13T00:44:19.812Z,99280.58
2019-05-13T00:46:50.898Z,99273.98
2019-05-13T00:49:23.887Z,99273.98
2019-05-13T00:51:55.977Z,99276.59
2019-05-13T00:54:26.930Z,99276.33
2019-05-13T00:56:57.905Z,99277.63
2019-05-13T00:59:29.115Z,99279.63
2019-05-13T01:02:00.301Z,99276.48
2019-05-13T01:04:33.700Z,99275.25
2019-05-13T01:07:04.645Z,99277.86
2019-05-13T01:09:36.192Z,99274.95
2019-05-13T01:12:07.223Z,99275.95
2019-05-13T01:14:38.963Z,99276.64
2019-05-13T01:17:10.405Z,99279.24
2019-05-13T01:19:43.317Z,99284.97
2019-05-13T01:22:14.673Z,99282.05
2019-05-13T01:24:45.755Z,99290.60
2019-05-13T01:27:17.129Z,99289.06
2019-05-13T01:29:48.414Z,99289.84
2019-05-13T01:32:19.367Z,99293.20
2019-05-13T01:34:50.486Z,99287.03
2019-05-13T01:37:24.773Z,99291.14
2019-05-13T01:39:56.415Z,99295.27
2019-05-13T01:42:27.649Z,99294.55
2019-05-13T01:44:58.777Z,99297.16
2019-05-13T01:47:30.282Z,99293.66
2019-05-13T01:50:04.079Z,99295.26
2019-05-13T01:52:34.492Z,99291.97
2019-05-13T01:55:08.064Z,99297.77
2019-05-13T01:57:39.286Z,99291.05
2019-05-13T02:00:13.762Z,99297.52
2019-05-13T02:02:44.485Z,99299.36
2019-05-13T02:05:16.054Z,99293.44
2019-05-13T02:07:57.016Z,99300.20
2019-05-13T02:10:22.063Z,99306.60
2019-05-13T02:12:53.615Z,99299.02
2019-05-13T02:15:24.861Z,99305.92
2019-05-13T02:17:55.900Z,99302.93
2019-05-13T02:20:27.096Z,99303.31
2019-05-13T02:22:58.221Z,99305.69
2019-05-13T02:25:29.396Z,99312.05
2019-05-13T02:28:00.526Z,99303.24
2019-05-13T02:30:34.932Z,99312.83
2019-05-13T02:33:04.509Z,99313.75
2019-05-13T02:35:35.601Z,99323.94
2019-05-13T02:38:19.696Z,99315.77
2019-05-13T02:40:42.917Z,99322.30
2019-05-13T02:43:13.761Z,99328.25
2019-05-13T02:45:45.085Z,99328.23
2019-05-13T02:48:16.460Z,99322.23
2019-05-13T02:50:47.517Z,99327.33
2019-05-13T02:53:18.577Z,99332.09
2019-05-13T02:55:52.312Z,99332.22
2019-05-13T02:58:24.162Z,99340.47
2019-05-13T03:00:55.206Z,99332.27
2019-05-13T03:03:26.482Z,99338.55
2019-05-13T03:05:57.943Z,99339.07
2019-05-13T03:08:48.322Z,99340.03
2019-05-13T03:11:03.029Z,99347.00
2019-05-13T03:13:34.377Z,99341.61
2019-05-13T03:16:13.242Z,99349.22
2019-05-13T03:18:44.474Z,99345.95
2019-05-13T03:21:15.779Z,99351.30
2019-05-13T03:23:46.752Z,99355.14
2019-05-13T03:26:17.951Z,99349.47
2019-05-13T03:28:52.162Z,99349.47
2019-05-13T03:31:26.539Z,99349.09
2019-05-13T03:33:56.708Z,99355.21
2019-05-13T03:36:28.409Z,99353.27
2019-05-13T03:39:06.932Z,99359.08
2019-05-13T03:41:36.394Z,99360.80
2019-05-13T03:44:13.535Z,99364.92
2019-05-13T03:46:45.991Z,99371.37
2019-05-13T03:49:23.064Z,99368.58
2019-05-13T03:51:53.633Z,99373.48
2019-05-13T03:54:25.097Z,99372.88
2019-05-13T03:56:56.999Z,99375.63
2019-05-13T03:59:28.361Z,99383.09
2019-05-13T04:02:02.481Z,99388.52
2019-05-13T04:04:32.767Z,99380.77
2019-05-13T04:07:04.205Z,99383.55
2019-05-13T04:09:36.752Z,99398.63
2019-05-13T04:12:08.427Z,99401.80
2019-05-13T04:14:42.185Z,99413.21
2019-05-13T04:17:12.787Z,99414.52
2019-05-13T04:19:44.475Z,99417.33
2019-05-13T04:22:15.873Z,99415.96
2019-05-13T04:24:48.119Z,99419.94
2019-05-13T04:27:19.384Z,99420.96
2019-05-13T04:29:52.793Z,99417.83
2019-05-13T04:32:28.241Z,99423.05
2019-05-13T04:34:57.177Z,99416.34
2019-05-13T04:37:28.288Z,99420.05
2019-05-13T04:40:03.379Z,99423.00
2019-05-13T04:42:33.290Z,99423.78
2019-05-13T04:45:06.166Z,99432.66
2019-05-13T04:47:37.235Z,99428.25
2019-05-13T04:50:12.826Z,99428.99
2019-05-13T04:52:43.031Z,99427.02
2019-05-13T04:55:14.372Z,99425.08
2019-05-13T04:57:45.761Z,99416.80
2019-05-13T05:00:23.364Z,99417.64
2019-05-13T05:03:04.830Z,99416.39
2019-05-13T05:05:55.377Z,99410.47
2019-05-13T05:08:52.482Z,99410.30
2019-05-13T05:11:52.902Z,99408.27
2019-05-13T05:14:32.535Z,99411.73
2019-05-13T05:17:43.419Z,99419.17
2019-05-13T05:20:34.117Z,99420.59
2019-05-13T05:23:34.023Z,99431.93
2019-05-13T05:26:45.953Z,99433.04
2019-05-13T05:29:51.636Z,99433.03
2019-05-13T05:32:54.411Z,99440.02
2019-05-13T05:36:01.822Z,99433.11
2019-05-13T05:38:43.415Z,99437.61
2019-05-13T05:41:18.129Z,99432.84
2019-05-13T05:43:53.158Z,99433.86
2019-05-13T05:46:26.666Z,99426.28
2019-05-13T05:49:02.118Z,99422.58
2019-05-13T05:51:35.317Z,99425.45
2019-05-13T05:54:11.163Z,99436.78
2019-05-13T05:56:42.134Z,99437.18
2019-05-13T05:59:13.181Z,99436.05
2019-05-13T06:01:47.669Z,99439.59
2019-05-13T06:04:21.998Z,99431.28
2019-05-13T06:06:56.165Z,99446.19
2019-05-13T06:09:27.759Z,99447.91
2019-05-13T06:11:58.816Z,99453.89
2019-05-13T06:14:32.380Z,99449.60
2019-05-13T06:17:03.098Z,99457.37
2019-05-13T06:19:34.667Z,99452.73
2019-05-13T06:22:05.738Z,99454.51
2019-05-13T06:24:36.957Z,99452.45
2019-05-13T06:27:08.100Z,99451.69
2019-05-13T06:29:39.258Z,99455.05
2019-05-13T06:32:19.098Z,99459.14
2019-05-13T06:34:43.447Z,99456.74
2019-05-13T06:37:14.586Z,99466.82
2019-05-13T06:39:45.816Z,99460.98
2019-05-13T06:42:17.135Z,99464.93
2019-05-13T06:44:48.208Z,99464.95
2019-05-13T06:47:21.749Z,99464.44
2019-05-13T06:49:52.081Z,99467.66
2019-05-13T06:52:23.212Z,99470.12
2019-05-13T06:54:54.730Z,99470.84
2019-05-13T06:57:25.835Z,99470.46
2019-05-13T06:59:57.184Z,99473.84
2019-05-13T07:02:28.411Z,99479.75
2019-05-13T07:05:02.068Z,99482.37
2019-05-13T07:07:32.520Z,99483.03
2019-05-13T07:10:04.674Z,99488.15
2019-05-13T07:12:38.451Z,99496.49
2019-05-13T07:15:11.542Z,99492.37
2019-05-13T07:17:43.512Z,99502.53
2019-05-13T07:20:15.472Z,99495.07
2019-05-13T07:22:46.510Z,99497.85
2019-05-13T07:25:17.646Z,99497.72
2019-05-13T07:27:51.386Z,99504.08
2019-05-13T07:30:43.401Z,99504.25
2019-05-13T07:33:14.736Z,99504.54
2019-05-13T07:35:46.496Z,99498.43
2019-05-13T07:38:18.763Z,99501.85
2019-05-13T07:40:54.289Z,99506.14
2019-05-13T07:43:25.851Z,99504.48
2019-05-13T07:45:57.282Z,99508.25
2019-05-13T07:48:28.549Z,99507.64
2019-05-13T07:51:04.265Z,99505.02
2019-05-13T07:53:33.477Z,99514.84
2019-05-13T07:56:04.836Z,99513.82
2019-05-13T07:58:37.539Z,99509.38
2019-05-13T08:01:11.996Z,99512.05
2019-05-13T08:03:42.297Z,99511.39
2019-05-13T08:06:13.469Z,99508.70
2019-05-13T08:08:44.593Z,99515.76
2019-05-13T08:11:15.843Z,99517.70
2019-05-13T08:13:46.872Z,99513.14
2019-05-13T08:16:18.107Z,99520.03
2019-05-13T08:18:49.097Z,99515.27
2019-05-13T08:21:21.487Z,99519.70
2019-05-13T08:23:53.238Z,99523.03
2019-05-13T08:26:24.741Z,99528.06
2019-05-13T08:29:01.611Z,99525.22
2019-05-13T08:31:32.061Z,99525.66
2019-05-13T08:34:04.059Z,99529.87
2019-05-13T08:36:35.238Z,99528.98
2019-05-13T08:39:12.755Z,99531.81
2019-05-13T08:41:43.553Z,99529.83
2019-05-13T08:44:14.857Z,99532.84
2019-05-13T08:46:46.216Z,99532.67
2019-05-13T08:49:17.589Z,99541.31
2019-05-13T08:51:48.890Z,99543.33
2019-05-13T08:54:21.996Z,99547.03
2019-05-13T08:56:53.171Z,99549.45
2019-05-13T08:59:24.227Z,99558.30
2019-05-13T09:01:56.151Z,99548.92
2019-05-13T09:04:27.303Z,99559.05
2019-05-13T09:07:01.763Z,99561.06
2019-05-13T09:09:32.393Z,99560.39
2019-05-13T09:12:03.581Z,99560.34
2019-05-13T09:14:34.772Z,99561.05
2019-05-13T09:17:06.148Z,99565.70
2019-05-13T09:19:37.753Z,99552.56
2019-05-13T09:22:08.802Z,99556.09
2019-05-13T09:24:42.262Z,99546.84
2019-05-13T09:27:12.688Z,99545.65
2019-05-13T09:29:43.682Z,99546.05
2019-05-13T09:32:14.908Z,99544.09
2019-05-13T09:34:45.956Z,99539.14
2019-05-13T09:37:17.080Z,99546.73
2019-05-13T09:39:48.238Z,99546.73
2019-05-13T09:42:21.469Z,99549.34
2019-05-13T09:44:52.644Z,99545.93
2019-05-13T09:47:28.059Z,99548.84
2019-05-13T09:49:57.248Z,99539.27
2019-05-13T09:52:28.390Z,99533.65
2019-05-13T09:54:59.779Z,99540.00
2019-05-13T09:57:32.201Z,99541.23
2019-05-13T10:00:05.537Z,99541.82
2019-05-13T10:02:37.082Z,99545.78
2019-05-13T10:05:11.192Z,99543.04
2019-05-13T10:07:42.639Z,99542.16
2019-05-13T10:10:15.711Z,99543.81
2019-05-13T10:13:06.071Z,99539.44
2019-05-13T10:15:22.150Z,99548.92
2019-05-13T10:17:52.931Z,99550.50
2019-05-13T10:20:58.381Z,99546.86
2019-05-13T10:23:27.898Z,99543.34
2019-05-13T10:26:06.682Z,99546.34
2019-05-13T10:28:38.007Z,99537.75
2019-05-13T10:31:12.004Z,99537.73
2019-05-13T10:33:42.490Z,99539.66
2019-05-13T10:36:14.352Z,99534.38
2019-05-13T10:38:45.950Z,99527.52
2019-05-13T10:41:17.019Z,99533.20
2019-05-13T10:43:48.262Z,99536.13
2019-05-13T10:46:21.605Z,99530.96
2019-05-13T10:48:52.870Z,99530.59
2019-05-13T10:51:24.204Z,99537.53
2019-05-13T10:53:59.474Z,99526.91
2019-05-13T10:56:28.406Z,99534.22
2019-05-13T10:59:02.490Z,99527.61
2019-05-13T11:01:32.894Z,99527.66
2019-05-13T11:04:04.562Z,99520.50
2019-05-13T11:06:35.753Z,99525.40
2019-05-13T11:09:13.010Z,99523.52
2019-05-13T11:11:44.125Z,99519.77
2019-05-13T11:14:15.939Z,99534.41
2019-05-13T11:16:47.325Z,99528.42
2019-05-13T11:19:18.516Z,99518.57
2019-05-13T11:21:50.797Z,99522.50
2019-05-13T11:24:22.982Z,99510.55
2019-05-13T11:26:54.336Z,99505.28
2019-05-13T11:29:25.325Z,99510.03
2019-05-13T11:31:56.514Z,99510.33
2019-05-13T11:34:27.853Z,99515.30
2019-05-13T11:36:59.149Z,99517.87
2019-05-13T11:39:32.492Z,99520.61
2019-05-13T11:42:03.012Z,99516.55
2019-05-13T11:44:34.226Z,99523.91
2019-05-13T11:47:06.163Z,99520.38
2019-05-13T11:49:37.437Z,99522.19
2019-05-13T11:52:11.099Z,99523.70
2019-05-13T11:54:42.493Z,99516.78
2019-05-13T11:57:13.764Z,99508.84
2019-05-13T11:59:44.844Z,99502.09
2019-05-13T12:02:15.937Z,99499.03
2019-05-13T12:04:47.399Z,99504.45
2019-05-13T12:07:18.790Z,99499.05
2019-05-13T12:09:51.857Z,99497.15
2019-05-13T12:12:30.175Z,99501.60
2019-05-13T12:15:22.514Z,99496.89
2019-05-13T12:17:28.794Z,99503.48
2019-05-13T12:20:02.302Z,99510.81
2019-05-13T12:22:32.623Z,99504.55
2019-05-13T12:25:05.414Z,99510.37
2019-05-13T12:27:36.565Z,99504.31
2019-05-13T12:30:08.798Z,99503.82
2019-05-13T12:32:43.771Z,99510.68
2019-05-13T12:35:13.659Z,99501.55
2019-05-13T12:37:45.123Z,99508.83
2019-05-13T12:40:16.869Z,99503.16
2019-05-13T12:42:48.059Z,99500.91
2019-05-13T12:45:22.449Z,99499.59
2019-05-13T12:47:53.640Z,99498.59
2019-05-13T12:50:25.606Z,99493.95
2019-05-13T12:52:56.923Z,99492.88
2019-05-13T12:55:28.011Z,99489.75
2019-05-13T12:58:02.482Z,99481.42
2019-05-13T13:00:33.036Z,99486.03
2019-05-13T13:03:04.345Z,99492.86
2019-05-13T13:05:37.094Z,99485.52
2019-05-13T13:08:24.019Z,99479.38
2019-05-13T13:10:42.370Z,99475.55
2019-05-13T13:13:14.127Z,99480.59
2019-05-13T13:15:48.532Z,99475.79
2019-05-13T13:18:18.015Z,99476.55
2019-05-13T13:20:57.988Z,99476.63
2019-05-13T13:23:23.695Z,99480.86
2019-05-13T13:25:57.148Z,99477.80
2019-05-13T13:28:27.759Z,99476.84
2019-05-13T13:31:03.799Z,99486.28
2019-05-13T13:33:34.290Z,99483.56
2019-05-13T13:36:05.977Z,99486.65
2019-05-13T13:38:37.702Z,99488.14
2019-05-13T13:41:08.784Z,99491.31
2019-05-13T13:43:42.026Z,99489.57
2019-05-13T13:46:32.658Z,99488.87
2019-05-13T13:48:45.588Z,99491.20
2019-05-13T13:51:16.771Z,99488.02
2019-05-13T13:53:47.851Z,99485.02
2019-05-13T13:56:24.486Z,99491.59
2019-05-13T13:58:52.050Z,99490.86
2019-05-13T14:01:27.218Z,99493.50
2019-05-13T14:03:56.171Z,99482.89
2019-05-13T14:09:01.533Z,99490.72
2019-05-13T14:11:33.487Z,99495.76
2019-05-13T14:14:04.817Z,99503.05
2019-05-13T14:16:36.082Z,99506.88
2019-05-13T14:19:07.473Z,99510.97
2019-05-13T14:21:38.570Z,99512.13
2019-05-13T14:24:12.061Z,99511.09
2019-05-13T14:26:43.460Z,99507.73
2019-05-13T14:29:14.613Z,99504.82
2019-05-13T14:31:45.887Z,99508.41
2019-05-13T14:34:17.472Z,99512.83
2019-05-13T14:36:51.767Z,99512.19
2019-05-13T14:39:23.056Z,99519.43
2019-05-13T14:41:54.346Z,99519.38
2019-05-13T14:44:25.534Z,99515.53
2019-05-13T14:46:56.996Z,99525.84
2019-05-13T14:49:31.721Z,99524.05
2019-05-13T14:52:02.986Z,99523.22
2019-05-13T14:54:35.443Z,99531.28
2019-05-13T14:57:11.720Z,99530.24
2019-05-13T14:59:42.482Z,99528.37
2019-05-13T15:02:13.640Z,99530.98
2019-05-13T15:04:44.807Z,99529.28
2019-05-13T15:07:16.330Z,99535.59
2019-05-13T15:09:47.590Z,99534.00
2019-05-13T15:12:21.417Z,99537.34
2019-05-13T15:14:52.356Z,99541.31
2019-05-13T15:17:23.764Z,99536.04
2019-05-13T15:19:56.540Z,99535.97
2019-05-13T15:22:27.879Z,99531.84
2019-05-13T15:24:59.011Z,99539.30
2019-05-13T15:27:31.727Z,99535.55
2019-05-13T15:30:16.733Z,99536.97
2019-05-13T15:32:36.139Z,99535.65
2019-05-13T15:35:10.099Z,99540.62
2019-05-13T15:37:41.747Z,99537.23
2019-05-13T15:40:13.023Z,99532.74
2019-05-13T15:42:44.257Z,99533.27
2019-05-13T15:45:15.542Z,99520.86
2019-05-13T15:47:46.898Z,99519.59
2019-05-13T15:50:18.195Z,99509.05
2019-05-13T15:52:49.352Z,99511.99
2019-05-13T15:55:22.432Z,99514.34
2019-05-13T15:57:53.683Z,99509.47
2019-05-13T16:00:25.237Z,99511.16
2019-05-13T16:02:56.238Z,99516.13
2019-05-13T16:05:27.688Z,99509.75
2019-05-13T16:08:01.385Z,99514.86
2019-05-13T16:10:32.124Z,99509.61
2019-05-13T16:13:03.108Z,99512.80
2019-05-13T16:15:34.304Z,99516.39
2019-05-13T16:18:05.512Z,99513.36
2019-05-13T16:20:37.058Z,99519.16
2019-05-13T16:23:08.273Z,99510.75
2019-05-13T16:25:41.617Z,99516.46
2019-05-13T16:28:13.531Z,99515.66
2019-05-13T16:30:44.536Z,99514.20
2019-05-13T16:33:16.077Z,99514.66
2019-05-13T16:35:47.092Z,99511.41
2019-05-13T16:38:18.444Z,99514.26
2019-05-13T16:40:51.482Z,99518.00
2019-05-13T16:43:22.915Z,99516.67
2019-05-13T16:45:54.282Z,99517.20
2019-05-13T16:48:25.469Z,99509.22
2019-05-13T16:50:56.566Z,99499.30
2019-05-13T16:53:27.679Z,99498.48
2019-05-13T16:55:58.649Z,99495.63
2019-05-13T16:58:32.428Z,99497.52
2019-05-13T17:01:03.853Z,99496.92
2019-05-13T17:03:36.371Z,99499.19
2019-05-13T17:06:07.571Z,99497.77
2019-05-13T17:08:39.333Z,99501.09
2019-05-13T17:11:11.834Z,99502.58
2019-05-13T17:13:43.533Z,99506.16
2019-05-13T17:16:14.735Z,99509.62
2019-05-13T17:18:45.881Z,99510.70
2019-05-13T17:21:17.109Z,99508.11
2019-05-13T17:23:48.420Z,99506.11
2019-05-13T17:26:21.955Z,99509.28
2019-05-13T17:28:52.230Z,99508.98
2019-05-13T17:31:23.908Z,99506.94
2019-05-13T17:33:54.939Z,99502.00
2019-05-13T17:36:26.191Z,99493.31
2019-05-13T17:38:57.163Z,99495.19
2019-05-13T17:41:28.479Z,99490.55
2019-05-13T17:43:59.614Z,99495.91
2019-05-13T17:46:32.598Z,99495.52
2019-05-13T17:49:03.749Z,99493.38
2019-05-13T17:51:34.865Z,99497.37
2019-05-13T17:54:06.126Z,99503.75
2019-05-13T17:56:37.283Z,99500.14
2019-05-13T17:59:08.500Z,99503.52
2019-05-13T18:01:41.231Z,99496.51
2019-05-13T18:04:12.590Z,99502.50
2019-05-13T18:06:43.713Z,99492.97
2019-05-13T18:09:14.914Z,99491.90
2019-05-13T18:11:45.947Z,99498.42
2019-05-13T18:14:16.988Z,99496.91
2019-05-13T18:16:48.208Z,99500.19
2019-05-13T18:19:19.442Z,99494.94
2019-05-13T18:21:51.605Z,99498.09
2019-05-13T18:24:23.059Z,99495.09
2019-05-13T18:26:54.280Z,99493.22
2019-05-13T18:29:26.167Z,99487.22
2019-05-13T18:31:57.372Z,99493.06
2019-05-13T18:34:28.554Z,99498.22
2019-05-13T18:37:02.187Z,99519.80
2019-05-13T18:39:32.603Z,99515.38
2019-05-13T18:42:03.735Z,99506.93
2019-05-13T18:44:34.962Z,99503.31
2019-05-13T18:47:06.236Z,99509.08
2019-05-13T18:49:37.234Z,99508.23
2019-05-13T18:52:08.386Z,99503.39
2019-05-13T18:54:41.910Z,99512.80
2019-05-13T18:57:12.450Z,99510.95
2019-05-13T18:59:43.620Z,99511.64
2019-05-13T19:02:14.668Z,99514.45
2019-05-13T19:04:45.560Z,99512.59
2019-05-13T19:07:16.920Z,99510.75
2019-05-13T19:09:48.167Z,99513.16
2019-05-13T19:12:21.992Z,99509.08
2019-05-13T19:14:53.393Z,99509.93
2019-05-13T19:17:24.562Z,99508.91
2019-05-13T19:19:55.586Z,99507.53
2019-05-13T19:22:26.848Z,99503.65
2019-05-13T19:24:57.942Z,99504.80
2019-05-13T19:27:28.939Z,99505.80
2019-05-13T19:30:01.350Z,99506.44
2019-05-13T19:32:32.784Z,99499.52
2019-05-13T19:35:04.518Z,99503.71
2019-05-13T19:37:36.301Z,99500.10
2019-05-13T19:40:08.990Z,99503.63
2019-05-13T19:42:41.875Z,99505.40
2019-05-13T19:45:13.573Z,99500.40
2019-05-13T19:47:44.964Z,99502.94
2019-05-13T19:50:16.510Z,99496.18
2019-05-13T19:52:47.566Z,99500.05
2019-05-13T19:55:18.700Z,99497.03
2019-05-13T19:57:51.700Z,99491.30
2019-05-13T20:00:23.095Z,99490.37
2019-05-13T20:02:54.248Z,99486.58
2019-05-13T20:05:25.234Z,99490.84
2019-05-13T20:07:56.438Z,99485.96
2019-05-13T20:10:31.344Z,99481.73
2019-05-13T20:13:01.955Z,99483.05
2019-05-13T20:15:33.386Z,99484.61
2019-05-13T20:18:05.014Z,99482.27
2019-05-13T20:20:36.254Z,99480.46
2019-05-13T20:23:07.534Z,99478.97
2019-05-13T20:25:38.542Z,99474.73
2019-05-13T20:28:11.604Z,99471.93
2019-05-13T20:30:45.389Z,99470.56
2019-05-13T20:33:15.294Z,99464.69
2019-05-13T20:35:46.534Z,99464.05
2019-05-13T20:38:17.524Z,99462.30
2019-05-13T20:40:51.792Z,99457.94
2019-05-13T20:43:22.575Z,99455.27
2019-05-13T20:45:53.855Z,99453.52
2019-05-13T20:48:25.003Z,99443.97
2019-05-13T20:50:56.074Z,99444.73
2019-05-13T20:53:27.347Z,99450.23
2019-05-13T20:55:58.306Z,99448.92
2019-05-13T20:58:31.572Z,99442.86
2019-05-13T21:01:02.638Z,99447.26
2019-05-13T21:03:33.905Z,99442.78
2019-05-13T21:06:05.230Z,99439.11
2019-05-13T21:08:36.312Z,99444.19
2019-05-13T21:11:07.493Z,99437.73
2019-05-13T21:13:38.629Z,99438.97
2019-05-13T21:16:11.465Z,99439.24
2019-05-13T21:18:42.681Z,99433.12
2019-05-13T21:21:13.847Z,99440.84
2019-05-13T21:23:45.111Z,99437.89
2019-05-13T21:26:16.227Z,99436.13
2019-05-13T21:28:47.521Z,99438.55
2019-05-13T21:31:18.743Z,99435.55
2019-05-13T21:33:51.393Z,99437.37
2019-05-13T21:36:22.830Z,99430.86
2019-05-13T21:38:54.226Z,99432.66
2019-05-13T21:41:25.337Z,99431.88
2019-05-13T21:43:56.562Z,99429.47
2019-05-13T21:46:27.679Z,99421.50
2019-05-13T21:49:00.959Z,99418.77
2019-05-13T21:51:31.651Z,99418.05
2019-05-13T21:54:02.866Z,99420.81
2019-05-13T21:56:33.873Z,99427.33
2019-05-13T21:59:04.975Z,99427.16
2019-05-13T22:01:36.732Z,99427.35
2019-05-13T22:04:09.239Z,99433.41
2019-05-13T22:06:40.658Z,99430.18
2019-05-13T22:09:13.239Z,99423.23
2019-05-13T22:11:44.377Z,99416.73
2019-05-13T22:14:15.347Z,99412.44
2019-05-13T22:16:46.585Z,99412.83
2019-05-13T22:19:17.745Z,99411.80
2019-05-13T22:21:51.407Z,99405.19
2019-05-13T22:24:22.150Z,99406.36
2019-05-13T22:26:53.701Z,99404.94
2019-05-13T22:29:24.959Z,99399.86
2019-05-13T22:31:56.221Z,99398.10
2019-05-13T22:34:27.207Z,99401.05
2019-05-13T22:36:58.233Z,99398.33
2019-05-13T22:39:32.295Z,99391.95
2019-05-13T22:42:02.415Z,99392.02
2019-05-13T22:44:33.835Z,99400.27
2019-05-13T22:47:05.119Z,99393.25
2019-05-13T22:49:36.456Z,99396.30
2019-05-13T22:52:07.908Z,99396.83
2019-05-13T22:54:41.224Z,99391.10
2019-05-13T22:57:12.302Z,99382.97
2019-05-13T22:59:43.304Z,99384.34
2019-05-13T23:02:14.339Z,99391.75
2019-05-13T23:04:45.423Z,99396.77
2019-05-13T23:07:16.701Z,99386.68
2019-05-13T23:09:47.853Z,99381.59
2019-05-13T23:12:21.144Z,99380.84
2019-05-13T23:14:52.143Z,99391.77
2019-05-13T23:17:23.511Z,99392.23
2019-05-13T23:19:54.846Z,99387.84
2019-05-13T23:22:25.966Z,99379.33
2019-05-13T23:24:56.856Z,99372.83
2019-05-13T23:27:27.894Z,99377.70
2019-05-13T23:30:01.079Z,99373.50
2019-05-13T23:32:32.108Z,99366.94
2019-05-13T23:35:03.477Z,99361.34
2019-05-13T23:37:34.687Z,99353.23
2019-05-13T23:40:08.169Z,99352.91
2019-05-13T23:42:39.334Z,99355.13
2019-05-13T23:45:11.455Z,99356.62
2019-05-13T23:47:43.296Z,99344.39
2019-05-13T23:50:14.686Z,99337.95
2019-05-13T23:52:46.434Z,99337.50
2019-05-13T23:55:17.596Z,99344.33
2019-05-13T23:57:48.520Z,99333.59
